sensor_id;sensor_type;location;lat;lon;timestamp;temperature;humidity
32366;DHT22;18837;46.832;16.838;2024-02-26T00:00:04;9.10;97.70
32366;DHT22;18837;46.832;16.838;2024-02-26T00:02:36;9.10;97.90
32366;DHT22;18837;46.832;16.838;2024-02-26T00:05:07;9.10;98.00
32366;DHT22;18837;46.832;16.838;2024-02-26T00:07:33;9.10;97.80
32366;DHT22;18837;46.832;16.838;2024-02-26T00:09:59;9.10;97.70
32366;DHT22;18837;46.832;16.838;2024-02-26T00:12:25;9.10;97.70
32366;DHT22;18837;46.832;16.838;2024-02-26T00:14:51;9.00;97.70
32366;DHT22;18837;46.832;16.838;2024-02-26T00:17:18;9.10;97.70
32366;DHT22;18837;46.832;16.838;2024-02-26T00:19:50;9.00;97.70
32366;DHT22;18837;46.832;16.838;2024-02-26T00:22:15;9.00;97.80
32366;DHT22;18837;46.832;16.838;2024-02-26T00:24:41;9.00;97.50
32366;DHT22;18837;46.832;16.838;2024-02-26T00:27:07;9.00;97.70
32366;DHT22;18837;46.832;16.838;2024-02-26T00:29:33;9.00;97.50
32366;DHT22;18837;46.832;16.838;2024-02-26T00:31:58;9.00;97.70
32366;DHT22;18837;46.832;16.838;2024-02-26T00:35:03;9.00;97.60
32366;DHT22;18837;46.832;16.838;2024-02-26T00:37:52;9.00;97.90
32366;DHT22;18837;46.832;16.838;2024-02-26T00:40:37;9.00;97.70
32366;DHT22;18837;46.832;16.838;2024-02-26T00:43:03;9.00;97.80
32366;DHT22;18837;46.832;16.838;2024-02-26T00:45:29;9.00;97.70
32366;DHT22;18837;46.832;16.838;2024-02-26T00:47:55;9.00;97.90
32366;DHT22;18837;46.832;16.838;2024-02-26T00:50:21;9.00;98.00
32366;DHT22;18837;46.832;16.838;2024-02-26T00:52:46;9.00;98.10
32366;DHT22;18837;46.832;16.838;2024-02-26T00:55:12;9.00;98.10
32366;DHT22;18837;46.832;16.838;2024-02-26T00:57:38;9.00;97.90
32366;DHT22;18837;46.832;16.838;2024-02-26T01:00:06;9.00;97.90
32366;DHT22;18837;46.832;16.838;2024-02-26T01:02:34;9.00;97.90
32366;DHT22;18837;46.832;16.838;2024-02-26T01:05:00;9.00;98.10
32366;DHT22;18837;46.832;16.838;2024-02-26T01:07:25;9.00;98.00
32366;DHT22;18837;46.832;16.838;2024-02-26T01:09:55;8.90;98.00
32366;DHT22;18837;46.832;16.838;2024-02-26T01:12:25;8.90;98.10
32366;DHT22;18837;46.832;16.838;2024-02-26T01:14:51;8.90;98.00
32366;DHT22;18837;46.832;16.838;2024-02-26T01:17:17;8.90;98.10
32366;DHT22;18837;46.832;16.838;2024-02-26T01:19:43;8.90;98.10
32366;DHT22;18837;46.832;16.838;2024-02-26T01:22:09;8.90;98.10
32366;DHT22;18837;46.832;16.838;2024-02-26T01:24:35;8.90;98.00
32366;DHT22;18837;46.832;16.838;2024-02-26T01:27:00;8.90;98.10
32366;DHT22;18837;46.832;16.838;2024-02-26T01:29:29;8.90;98.00
32366;DHT22;18837;46.832;16.838;2024-02-26T01:31:55;8.90;98.20
32366;DHT22;18837;46.832;16.838;2024-02-26T01:34:21;8.90;98.00
32366;DHT22;18837;46.832;16.838;2024-02-26T01:36:47;8.90;98.00
32366;DHT22;18837;46.832;16.838;2024-02-26T01:39:13;8.90;98.10
32366;DHT22;18837;46.832;16.838;2024-02-26T01:41:39;8.90;98.10
32366;DHT22;18837;46.832;16.838;2024-02-26T01:44:29;8.90;98.10
32366;DHT22;18837;46.832;16.838;2024-02-26T01:47:16;8.90;98.10
32366;DHT22;18837;46.832;16.838;2024-02-26T01:49:42;8.90;98.10
32366;DHT22;18837;46.832;16.838;2024-02-26T01:52:09;8.90;98.30
32366;DHT22;18837;46.832;16.838;2024-02-26T01:54:37;8.90;98.30
32366;DHT22;18837;46.832;16.838;2024-02-26T01:57:04;8.80;98.20
32366;DHT22;18837;46.832;16.838;2024-02-26T01:59:30;8.80;98.20
32366;DHT22;18837;46.832;16.838;2024-02-26T02:01:59;8.80;98.30
32366;DHT22;18837;46.832;16.838;2024-02-26T02:04:28;8.80;98.30
32366;DHT22;18837;46.832;16.838;2024-02-26T02:06:55;8.80;98.40
32366;DHT22;18837;46.832;16.838;2024-02-26T02:09:22;8.80;98.40
32366;DHT22;18837;46.832;16.838;2024-02-26T02:11:48;8.80;98.20
32366;DHT22;18837;46.832;16.838;2024-02-26T02:14:14;8.80;98.00
32366;DHT22;18837;46.832;16.838;2024-02-26T02:16:40;8.80;98.30
32366;DHT22;18837;46.832;16.838;2024-02-26T02:19:29;8.80;98.40
32366;DHT22;18837;46.832;16.838;2024-02-26T02:22:30;8.80;98.00
32366;DHT22;18837;46.832;16.838;2024-02-26T02:24:57;8.80;98.40
32366;DHT22;18837;46.832;16.838;2024-02-26T02:27:24;8.80;98.10
32366;DHT22;18837;46.832;16.838;2024-02-26T02:29:50;8.80;98.60
32366;DHT22;18837;46.832;16.838;2024-02-26T02:32:17;8.70;98.40
32366;DHT22;18837;46.832;16.838;2024-02-26T02:34:44;8.70;98.50
32366;DHT22;18837;46.832;16.838;2024-02-26T02:37:21;8.70;98.40
32366;DHT22;18837;46.832;16.838;2024-02-26T02:39:47;8.70;98.50
32366;DHT22;18837;46.832;16.838;2024-02-26T02:42:13;8.70;98.50
32366;DHT22;18837;46.832;16.838;2024-02-26T02:44:39;8.70;98.40
32366;DHT22;18837;46.832;16.838;2024-02-26T02:47:04;8.70;98.40
32366;DHT22;18837;46.832;16.838;2024-02-26T02:49:30;8.70;98.50
32366;DHT22;18837;46.832;16.838;2024-02-26T02:51:56;8.70;98.60
32366;DHT22;18837;46.832;16.838;2024-02-26T02:54:43;8.70;98.40
32366;DHT22;18837;46.832;16.838;2024-02-26T02:57:36;8.70;98.70
32366;DHT22;18837;46.832;16.838;2024-02-26T03:00:08;8.70;98.70
32366;DHT22;18837;46.832;16.838;2024-02-26T03:02:34;8.70;98.40
32366;DHT22;18837;46.832;16.838;2024-02-26T03:05:02;8.70;98.60
32366;DHT22;18837;46.832;16.838;2024-02-26T03:07:28;8.70;98.40
32366;DHT22;18837;46.832;16.838;2024-02-26T03:09:54;8.70;98.50
32366;DHT22;18837;46.832;16.838;2024-02-26T03:12:25;8.70;98.40
32366;DHT22;18837;46.832;16.838;2024-02-26T03:14:55;8.70;98.70
32366;DHT22;18837;46.832;16.838;2024-02-26T03:17:21;8.60;98.50
32366;DHT22;18837;46.832;16.838;2024-02-26T03:19:47;8.60;98.60
32366;DHT22;18837;46.832;16.838;2024-02-26T03:22:13;8.60;98.60
32366;DHT22;18837;46.832;16.838;2024-02-26T03:24:39;8.60;98.60
32366;DHT22;18837;46.832;16.838;2024-02-26T03:27:32;8.60;98.70
32366;DHT22;18837;46.832;16.838;2024-02-26T03:33:36;8.60;98.60
32366;DHT22;18837;46.832;16.838;2024-02-26T03:36:03;8.60;98.70
32366;DHT22;18837;46.832;16.838;2024-02-26T03:38:29;8.60;98.50
32366;DHT22;18837;46.832;16.838;2024-02-26T03:40:55;8.60;98.60
32366;DHT22;18837;46.832;16.838;2024-02-26T03:43:22;8.60;98.70
32366;DHT22;18837;46.832;16.838;2024-02-26T03:45:47;8.60;98.60
32366;DHT22;18837;46.832;16.838;2024-02-26T03:48:13;8.60;98.70
32366;DHT22;18837;46.832;16.838;2024-02-26T03:50:39;8.60;98.70
32366;DHT22;18837;46.832;16.838;2024-02-26T03:53:05;8.60;98.80
32366;DHT22;18837;46.832;16.838;2024-02-26T03:55:31;8.60;98.60
32366;DHT22;18837;46.832;16.838;2024-02-26T03:57:57;8.60;98.50
32366;DHT22;18837;46.832;16.838;2024-02-26T04:00:22;8.50;98.70
32366;DHT22;18837;46.832;16.838;2024-02-26T04:03:18;8.50;98.50
32366;DHT22;18837;46.832;16.838;2024-02-26T04:06:15;8.60;98.90
32366;DHT22;18837;46.832;16.838;2024-02-26T04:08:43;8.50;98.70
32366;DHT22;18837;46.832;16.838;2024-02-26T04:11:09;8.50;98.60
32366;DHT22;18837;46.832;16.838;2024-02-26T04:13:35;8.50;98.80
32366;DHT22;18837;46.832;16.838;2024-02-26T04:16:04;8.50;98.90
32366;DHT22;18837;46.832;16.838;2024-02-26T04:18:29;8.50;98.70
32366;DHT22;18837;46.832;16.838;2024-02-26T04:21:36;8.50;98.80
32366;DHT22;18837;46.832;16.838;2024-02-26T04:24:02;8.50;98.70
32366;DHT22;18837;46.832;16.838;2024-02-26T04:26:30;8.50;98.70
32366;DHT22;18837;46.832;16.838;2024-02-26T04:28:56;8.40;98.90
32366;DHT22;18837;46.832;16.838;2024-02-26T04:31:21;8.50;98.90
32366;DHT22;18837;46.832;16.838;2024-02-26T04:33:47;8.50;99.10
32366;DHT22;18837;46.832;16.838;2024-02-26T04:36:28;8.50;98.90
32366;DHT22;18837;46.832;16.838;2024-02-26T04:42:18;8.40;98.90
32366;DHT22;18837;46.832;16.838;2024-02-26T04:44:45;8.40;99.00
32366;DHT22;18837;46.832;16.838;2024-02-26T04:47:10;8.40;98.60
32366;DHT22;18837;46.832;16.838;2024-02-26T04:49:36;8.40;99.00
32366;DHT22;18837;46.832;16.838;2024-02-26T04:52:02;8.40;98.90
32366;DHT22;18837;46.832;16.838;2024-02-26T04:54:31;8.40;98.80
32366;DHT22;18837;46.832;16.838;2024-02-26T04:57:07;8.40;99.00
32366;DHT22;18837;46.832;16.838;2024-02-26T04:59:35;8.40;98.90
32366;DHT22;18837;46.832;16.838;2024-02-26T05:02:01;8.40;99.10
32366;DHT22;18837;46.832;16.838;2024-02-26T05:04:27;8.30;99.00
32366;DHT22;18837;46.832;16.838;2024-02-26T05:06:52;8.40;98.90
32366;DHT22;18837;46.832;16.838;2024-02-26T05:09:19;8.30;98.90
32366;DHT22;18837;46.832;16.838;2024-02-26T05:12:06;8.30;98.90
32366;DHT22;18837;46.832;16.838;2024-02-26T05:15:22;8.30;98.70
32366;DHT22;18837;46.832;16.838;2024-02-26T05:17:47;8.30;98.80
32366;DHT22;18837;46.832;16.838;2024-02-26T05:20:19;8.30;98.90
32366;DHT22;18837;46.832;16.838;2024-02-26T05:22:45;8.30;98.90
32366;DHT22;18837;46.832;16.838;2024-02-26T05:25:15;8.30;98.80
32366;DHT22;18837;46.832;16.838;2024-02-26T05:27:44;8.30;99.10
32366;DHT22;18837;46.832;16.838;2024-02-26T05:30:21;8.30;98.80
32366;DHT22;18837;46.832;16.838;2024-02-26T05:32:57;8.30;98.80
32366;DHT22;18837;46.832;16.838;2024-02-26T05:35:42;8.30;99.00
32366;DHT22;18837;46.832;16.838;2024-02-26T05:38:11;8.30;98.90
32366;DHT22;18837;46.832;16.838;2024-02-26T05:40:37;8.30;99.10
32366;DHT22;18837;46.832;16.838;2024-02-26T05:43:04;8.20;99.00
32366;DHT22;18837;46.832;16.838;2024-02-26T05:46:36;8.30;98.80
32366;DHT22;18837;46.832;16.838;2024-02-26T05:49:13;8.20;98.80
32366;DHT22;18837;46.832;16.838;2024-02-26T05:51:39;8.20;98.90
32366;DHT22;18837;46.832;16.838;2024-02-26T05:54:08;8.20;98.90
32366;DHT22;18837;46.832;16.838;2024-02-26T05:56:35;8.20;98.90
32366;DHT22;18837;46.832;16.838;2024-02-26T05:59:01;8.20;99.10
32366;DHT22;18837;46.832;16.838;2024-02-26T06:01:27;8.20;98.90
32366;DHT22;18837;46.832;16.838;2024-02-26T06:04:51;8.20;99.00
32366;DHT22;18837;46.832;16.838;2024-02-26T06:07:32;8.20;99.00
32366;DHT22;18837;46.832;16.838;2024-02-26T06:10:55;8.20;99.00
32366;DHT22;18837;46.832;16.838;2024-02-26T06:13:47;8.20;99.10
32366;DHT22;18837;46.832;16.838;2024-02-26T06:16:16;8.20;99.10
32366;DHT22;18837;46.832;16.838;2024-02-26T06:18:42;8.20;98.80
32366;DHT22;18837;46.832;16.838;2024-02-26T06:21:26;8.20;99.00
32366;DHT22;18837;46.832;16.838;2024-02-26T06:24:32;8.20;99.00
32366;DHT22;18837;46.832;16.838;2024-02-26T06:27:26;8.20;99.00
32366;DHT22;18837;46.832;16.838;2024-02-26T06:30:16;8.20;99.10
32366;DHT22;18837;46.832;16.838;2024-02-26T06:32:42;8.20;98.80
32366;DHT22;18837;46.832;16.838;2024-02-26T06:35:08;8.20;98.90
32366;DHT22;18837;46.832;16.838;2024-02-26T06:37:37;8.20;99.10
32366;DHT22;18837;46.832;16.838;2024-02-26T06:40:24;8.20;99.00
32366;DHT22;18837;46.832;16.838;2024-02-26T06:42:59;8.10;99.00
32366;DHT22;18837;46.832;16.838;2024-02-26T06:45:27;8.20;99.10
32366;DHT22;18837;46.832;16.838;2024-02-26T06:47:53;8.20;98.70
32366;DHT22;18837;46.832;16.838;2024-02-26T06:50:24;8.20;99.00
32366;DHT22;18837;46.832;16.838;2024-02-26T06:52:50;8.20;99.00
32366;DHT22;18837;46.832;16.838;2024-02-26T06:59:18;8.20;99.00
32366;DHT22;18837;46.832;16.838;2024-02-26T07:01:53;8.20;98.90
32366;DHT22;18837;46.832;16.838;2024-02-26T07:04:20;8.20;99.30
32366;DHT22;18837;46.832;16.838;2024-02-26T07:07:35;8.20;99.00
32366;DHT22;18837;46.832;16.838;2024-02-26T07:10:10;8.20;97.90
32366;DHT22;18837;46.832;16.838;2024-02-26T07:13:18;8.20;99.00
32366;DHT22;18837;46.832;16.838;2024-02-26T07:15:50;8.20;99.00
32366;DHT22;18837;46.832;16.838;2024-02-26T07:18:25;8.20;97.90
32366;DHT22;18837;46.832;16.838;2024-02-26T07:21:12;8.20;99.10
32366;DHT22;18837;46.832;16.838;2024-02-26T07:23:38;8.20;99.00
32366;DHT22;18837;46.832;16.838;2024-02-26T07:26:04;8.30;99.10
32366;DHT22;18837;46.832;16.838;2024-02-26T07:28:53;8.30;99.00
32366;DHT22;18837;46.832;16.838;2024-02-26T07:35:30;8.30;99.10
32366;DHT22;18837;46.832;16.838;2024-02-26T07:38:19;8.30;99.30
32366;DHT22;18837;46.832;16.838;2024-02-26T07:40:45;8.30;99.10
32366;DHT22;18837;46.832;16.838;2024-02-26T07:43:11;8.40;99.20
32366;DHT22;18837;46.832;16.838;2024-02-26T07:45:37;8.40;99.00
32366;DHT22;18837;46.832;16.838;2024-02-26T07:48:32;8.40;99.10
32366;DHT22;18837;46.832;16.838;2024-02-26T07:50:59;8.40;99.00
32366;DHT22;18837;46.832;16.838;2024-02-26T07:53:26;8.40;99.10
32366;DHT22;18837;46.832;16.838;2024-02-26T07:55:51;8.50;99.00
32366;DHT22;18837;46.832;16.838;2024-02-26T07:58:17;8.50;99.20
32366;DHT22;18837;46.832;16.838;2024-02-26T08:00:43;8.50;99.00
32366;DHT22;18837;46.832;16.838;2024-02-26T08:03:40;8.50;99.10
32366;DHT22;18837;46.832;16.838;2024-02-26T08:06:28;8.60;99.10
32366;DHT22;18837;46.832;16.838;2024-02-26T08:09:03;8.60;99.30
32366;DHT22;18837;46.832;16.838;2024-02-26T08:11:30;8.60;98.80
32366;DHT22;18837;46.832;16.838;2024-02-26T08:13:55;8.70;98.90
32366;DHT22;18837;46.832;16.838;2024-02-26T08:16:21;8.70;99.00
32366;DHT22;18837;46.832;16.838;2024-02-26T08:18:47;8.70;99.10
32366;DHT22;18837;46.832;16.838;2024-02-26T08:21:13;8.70;98.80
32366;DHT22;18837;46.832;16.838;2024-02-26T08:23:39;8.80;98.90
32366;DHT22;18837;46.832;16.838;2024-02-26T08:26:05;8.80;98.90
32366;DHT22;18837;46.832;16.838;2024-02-26T08:28:32;8.80;99.40
32366;DHT22;18837;46.832;16.838;2024-02-26T08:30:58;8.90;99.90
32366;DHT22;18837;46.832;16.838;2024-02-26T08:33:24;8.90;99.90
32366;DHT22;18837;46.832;16.838;2024-02-26T08:35:50;9.00;99.90
32366;DHT22;18837;46.832;16.838;2024-02-26T08:38:36;9.00;99.90
32366;DHT22;18837;46.832;16.838;2024-02-26T08:41:25;9.00;99.60
32366;DHT22;18837;46.832;16.838;2024-02-26T08:43:54;9.00;99.80
32366;DHT22;18837;46.832;16.838;2024-02-26T08:46:20;9.10;99.90
32366;DHT22;18837;46.832;16.838;2024-02-26T08:48:46;9.10;99.90
32366;DHT22;18837;46.832;16.838;2024-02-26T08:51:12;9.20;99.90
32366;DHT22;18837;46.832;16.838;2024-02-26T08:53:39;9.20;99.90
32366;DHT22;18837;46.832;16.838;2024-02-26T08:56:05;9.30;99.90
32366;DHT22;18837;46.832;16.838;2024-02-26T08:58:32;9.30;99.90
32366;DHT22;18837;46.832;16.838;2024-02-26T09:00:57;9.40;99.90
32366;DHT22;18837;46.832;16.838;2024-02-26T09:03:23;9.40;99.90
32366;DHT22;18837;46.832;16.838;2024-02-26T09:05:49;9.40;99.90
32366;DHT22;18837;46.832;16.838;2024-02-26T09:08:15;9.40;99.90
32366;DHT22;18837;46.832;16.838;2024-02-26T09:10:41;9.40;99.90
32366;DHT22;18837;46.832;16.838;2024-02-26T09:13:08;9.50;99.90
32366;DHT22;18837;46.832;16.838;2024-02-26T09:15:34;9.50;99.90
32366;DHT22;18837;46.832;16.838;2024-02-26T09:18:01;9.50;99.90
32366;DHT22;18837;46.832;16.838;2024-02-26T09:20:28;9.60;99.70
32366;DHT22;18837;46.832;16.838;2024-02-26T09:22:54;9.60;99.60
32366;DHT22;18837;46.832;16.838;2024-02-26T09:25:20;9.60;99.70
32366;DHT22;18837;46.832;16.838;2024-02-26T09:27:46;9.70;99.70
32366;DHT22;18837;46.832;16.838;2024-02-26T09:30:13;9.70;99.70
32366;DHT22;18837;46.832;16.838;2024-02-26T09:32:40;9.70;99.80
32366;DHT22;18837;46.832;16.838;2024-02-26T09:35:07;9.70;99.70
32366;DHT22;18837;46.832;16.838;2024-02-26T09:37:33;9.80;99.70
32366;DHT22;18837;46.832;16.838;2024-02-26T09:40:00;9.80;99.90
32366;DHT22;18837;46.832;16.838;2024-02-26T09:42:26;9.80;99.80
32366;DHT22;18837;46.832;16.838;2024-02-26T09:44:56;9.80;99.70
32366;DHT22;18837;46.832;16.838;2024-02-26T09:47:33;9.90;99.90
32366;DHT22;18837;46.832;16.838;2024-02-26T09:53:18;9.90;99.90
32366;DHT22;18837;46.832;16.838;2024-02-26T09:55:47;9.90;99.90
32366;DHT22;18837;46.832;16.838;2024-02-26T09:58:13;9.90;99.40
32366;DHT22;18837;46.832;16.838;2024-02-26T10:00:48;9.90;99.20
32366;DHT22;18837;46.832;16.838;2024-02-26T10:03:18;10.00;99.70
32366;DHT22;18837;46.832;16.838;2024-02-26T10:05:56;10.00;99.20
32366;DHT22;18837;46.832;16.838;2024-02-26T10:08:24;10.00;98.30
32366;DHT22;18837;46.832;16.838;2024-02-26T10:10:50;10.00;98.90
32366;DHT22;18837;46.832;16.838;2024-02-26T10:13:16;10.00;99.00
32366;DHT22;18837;46.832;16.838;2024-02-26T10:15:42;10.10;98.60
32366;DHT22;18837;46.832;16.838;2024-02-26T10:18:08;10.10;98.50
32366;DHT22;18837;46.832;16.838;2024-02-26T10:20:42;10.20;98.40
32366;DHT22;18837;46.832;16.838;2024-02-26T10:23:52;10.20;98.60
32366;DHT22;18837;46.832;16.838;2024-02-26T10:26:19;10.30;98.70
32366;DHT22;18837;46.832;16.838;2024-02-26T10:28:46;10.30;98.20
32366;DHT22;18837;46.832;16.838;2024-02-26T10:31:14;10.30;98.00
32366;DHT22;18837;46.832;16.838;2024-02-26T10:33:41;10.40;97.90
32366;DHT22;18837;46.832;16.838;2024-02-26T10:36:08;10.50;97.70
32366;DHT22;18837;46.832;16.838;2024-02-26T10:38:35;10.40;97.30
32366;DHT22;18837;46.832;16.838;2024-02-26T10:41:06;10.50;97.40
32366;DHT22;18837;46.832;16.838;2024-02-26T10:43:34;10.50;97.30
32366;DHT22;18837;46.832;16.838;2024-02-26T10:46:00;10.50;97.40
32366;DHT22;18837;46.832;16.838;2024-02-26T10:48:26;10.60;97.20
32366;DHT22;18837;46.832;16.838;2024-02-26T10:50:52;10.60;97.50
32366;DHT22;18837;46.832;16.838;2024-02-26T10:53:22;10.60;97.40
32366;DHT22;18837;46.832;16.838;2024-02-26T10:56:06;10.70;97.30
32366;DHT22;18837;46.832;16.838;2024-02-26T10:58:33;10.70;97.30
32366;DHT22;18837;46.832;16.838;2024-02-26T11:01:00;10.70;97.60
32366;DHT22;18837;46.832;16.838;2024-02-26T11:03:26;10.70;96.80
32366;DHT22;18837;46.832;16.838;2024-02-26T11:05:53;10.80;97.40
32366;DHT22;18837;46.832;16.838;2024-02-26T11:08:19;10.80;97.20
32366;DHT22;18837;46.832;16.838;2024-02-26T11:10:52;10.80;97.10
32366;DHT22;18837;46.832;16.838;2024-02-26T11:13:19;10.80;97.40
32366;DHT22;18837;46.832;16.838;2024-02-26T11:15:48;10.80;97.50
32366;DHT22;18837;46.832;16.838;2024-02-26T11:18:16;10.80;97.10
32366;DHT22;18837;46.832;16.838;2024-02-26T11:20:42;10.90;96.70
32366;DHT22;18837;46.832;16.838;2024-02-26T11:23:08;10.90;97.40
32366;DHT22;18837;46.832;16.838;2024-02-26T11:25:36;10.90;97.00
32366;DHT22;18837;46.832;16.838;2024-02-26T11:28:09;10.90;97.00
32366;DHT22;18837;46.832;16.838;2024-02-26T11:30:38;10.90;96.90
32366;DHT22;18837;46.832;16.838;2024-02-26T11:33:08;10.90;96.50
32366;DHT22;18837;46.832;16.838;2024-02-26T11:35:36;10.90;96.70
32366;DHT22;18837;46.832;16.838;2024-02-26T11:38:02;10.90;96.60
32366;DHT22;18837;46.832;16.838;2024-02-26T11:40:31;10.90;96.80
32366;DHT22;18837;46.832;16.838;2024-02-26T11:42:57;11.00;96.70
32366;DHT22;18837;46.832;16.838;2024-02-26T11:48:24;11.10;97.20
32366;DHT22;18837;46.832;16.838;2024-02-26T11:50:53;11.10;97.20
32366;DHT22;18837;46.832;16.838;2024-02-26T11:53:28;11.10;96.90
32366;DHT22;18837;46.832;16.838;2024-02-26T11:59:00;11.20;96.00
32366;DHT22;18837;46.832;16.838;2024-02-26T12:04:07;11.20;95.50
32366;DHT22;18837;46.832;16.838;2024-02-26T12:07:03;11.30;96.30
32366;DHT22;18837;46.832;16.838;2024-02-26T12:09:41;11.30;96.20
32366;DHT22;18837;46.832;16.838;2024-02-26T12:12:13;11.20;95.70
32366;DHT22;18837;46.832;16.838;2024-02-26T12:14:58;11.20;95.60
32366;DHT22;18837;46.832;16.838;2024-02-26T12:17:25;11.20;95.60
32366;DHT22;18837;46.832;16.838;2024-02-26T12:19:52;11.20;96.00
32366;DHT22;18837;46.832;16.838;2024-02-26T12:22:19;11.20;95.50
32366;DHT22;18837;46.832;16.838;2024-02-26T12:24:45;11.30;94.80
32366;DHT22;18837;46.832;16.838;2024-02-26T12:27:12;11.30;94.80
32366;DHT22;18837;46.832;16.838;2024-02-26T12:29:37;11.30;95.20
32366;DHT22;18837;46.832;16.838;2024-02-26T12:32:04;11.30;95.50
32366;DHT22;18837;46.832;16.838;2024-02-26T12:34:31;11.30;95.30
32366;DHT22;18837;46.832;16.838;2024-02-26T12:36:58;11.30;96.00
32366;DHT22;18837;46.832;16.838;2024-02-26T12:39:24;11.30;96.10
32366;DHT22;18837;46.832;16.838;2024-02-26T12:41:50;11.20;95.30
32366;DHT22;18837;46.832;16.838;2024-02-26T12:44:16;11.30;95.90
32366;DHT22;18837;46.832;16.838;2024-02-26T12:46:42;11.30;95.70
32366;DHT22;18837;46.832;16.838;2024-02-26T12:49:08;11.30;95.30
32366;DHT22;18837;46.832;16.838;2024-02-26T12:51:34;11.40;95.90
32366;DHT22;18837;46.832;16.838;2024-02-26T12:54:00;11.40;95.50
32366;DHT22;18837;46.832;16.838;2024-02-26T12:56:27;11.40;95.70
32366;DHT22;18837;46.832;16.838;2024-02-26T12:58:54;11.40;95.60
32366;DHT22;18837;46.832;16.838;2024-02-26T13:01:23;11.40;95.50
32366;DHT22;18837;46.832;16.838;2024-02-26T13:03:50;11.30;95.40
32366;DHT22;18837;46.832;16.838;2024-02-26T13:06:17;11.30;95.20
32366;DHT22;18837;46.832;16.838;2024-02-26T13:08:45;11.30;95.30
32366;DHT22;18837;46.832;16.838;2024-02-26T13:11:10;11.40;95.10
32366;DHT22;18837;46.832;16.838;2024-02-26T13:13:36;11.40;95.30
32366;DHT22;18837;46.832;16.838;2024-02-26T13:16:03;11.40;95.50
32366;DHT22;18837;46.832;16.838;2024-02-26T13:18:30;11.40;95.30
32366;DHT22;18837;46.832;16.838;2024-02-26T13:21:12;11.40;94.70
32366;DHT22;18837;46.832;16.838;2024-02-26T13:23:41;11.40;94.60
32366;DHT22;18837;46.832;16.838;2024-02-26T13:26:08;11.40;94.90
32366;DHT22;18837;46.832;16.838;2024-02-26T13:28:34;11.50;95.20
32366;DHT22;18837;46.832;16.838;2024-02-26T13:31:01;11.40;95.20
32366;DHT22;18837;46.832;16.838;2024-02-26T13:33:28;11.40;94.80
32366;DHT22;18837;46.832;16.838;2024-02-26T13:35:55;11.40;94.70
32366;DHT22;18837;46.832;16.838;2024-02-26T13:38:21;11.50;94.60
32366;DHT22;18837;46.832;16.838;2024-02-26T13:40:47;11.50;94.60
32366;DHT22;18837;46.832;16.838;2024-02-26T13:43:13;11.50;94.80
32366;DHT22;18837;46.832;16.838;2024-02-26T13:45:39;11.50;94.70
32366;DHT22;18837;46.832;16.838;2024-02-26T13:48:07;11.40;94.70
32366;DHT22;18837;46.832;16.838;2024-02-26T13:50:33;11.40;94.80
32366;DHT22;18837;46.832;16.838;2024-02-26T13:52:58;11.40;94.90
32366;DHT22;18837;46.832;16.838;2024-02-26T13:55:28;11.40;94.90
32366;DHT22;18837;46.832;16.838;2024-02-26T13:57:56;11.40;94.90
32366;DHT22;18837;46.832;16.838;2024-02-26T14:00:22;11.40;95.00
32366;DHT22;18837;46.832;16.838;2024-02-26T14:02:50;11.40;94.50
32366;DHT22;18837;46.832;16.838;2024-02-26T14:05:16;11.40;94.30
32366;DHT22;18837;46.832;16.838;2024-02-26T14:07:41;11.40;94.50
32366;DHT22;18837;46.832;16.838;2024-02-26T14:10:08;11.40;94.60
32366;DHT22;18837;46.832;16.838;2024-02-26T14:12:35;11.40;94.80
32366;DHT22;18837;46.832;16.838;2024-02-26T14:15:01;11.40;95.00
32366;DHT22;18837;46.832;16.838;2024-02-26T14:17:30;11.40;94.60
32366;DHT22;18837;46.832;16.838;2024-02-26T14:19:56;11.40;94.80
32366;DHT22;18837;46.832;16.838;2024-02-26T14:22:21;11.40;95.20
32366;DHT22;18837;46.832;16.838;2024-02-26T14:24:47;11.40;95.20
32366;DHT22;18837;46.832;16.838;2024-02-26T14:27:13;11.40;95.20
32366;DHT22;18837;46.832;16.838;2024-02-26T14:29:45;11.40;95.10
32366;DHT22;18837;46.832;16.838;2024-02-26T14:32:12;11.40;95.40
32366;DHT22;18837;46.832;16.838;2024-02-26T14:34:38;11.40;95.40
32366;DHT22;18837;46.832;16.838;2024-02-26T14:37:04;11.40;95.10
32366;DHT22;18837;46.832;16.838;2024-02-26T14:39:34;11.40;95.40
32366;DHT22;18837;46.832;16.838;2024-02-26T14:42:00;11.40;95.50
32366;DHT22;18837;46.832;16.838;2024-02-26T14:44:26;11.40;95.40
32366;DHT22;18837;46.832;16.838;2024-02-26T14:46:52;11.40;95.30
32366;DHT22;18837;46.832;16.838;2024-02-26T14:49:18;11.50;95.40
32366;DHT22;18837;46.832;16.838;2024-02-26T14:51:44;11.50;95.30
32366;DHT22;18837;46.832;16.838;2024-02-26T14:54:13;11.50;95.10
32366;DHT22;18837;46.832;16.838;2024-02-26T14:56:39;11.50;94.80
32366;DHT22;18837;46.832;16.838;2024-02-26T14:59:06;11.50;94.80
32366;DHT22;18837;46.832;16.838;2024-02-26T15:01:32;11.60;94.90
32366;DHT22;18837;46.832;16.838;2024-02-26T15:03:58;11.60;94.90
32366;DHT22;18837;46.832;16.838;2024-02-26T15:06:25;11.60;94.90
32366;DHT22;18837;46.832;16.838;2024-02-26T15:08:52;11.60;95.40
32366;DHT22;18837;46.832;16.838;2024-02-26T15:11:18;11.60;95.20
32366;DHT22;18837;46.832;16.838;2024-02-26T15:13:43;11.60;94.70
32366;DHT22;18837;46.832;16.838;2024-02-26T15:16:17;11.50;94.50
32366;DHT22;18837;46.832;16.838;2024-02-26T15:18:43;11.60;94.40
32366;DHT22;18837;46.832;16.838;2024-02-26T15:21:09;11.50;94.40
32366;DHT22;18837;46.832;16.838;2024-02-26T15:23:34;11.50;94.30
32366;DHT22;18837;46.832;16.838;2024-02-26T15:26:00;11.50;94.60
32366;DHT22;18837;46.832;16.838;2024-02-26T15:28:28;11.50;94.60
32366;DHT22;18837;46.832;16.838;2024-02-26T15:30:54;11.40;94.30
32366;DHT22;18837;46.832;16.838;2024-02-26T15:33:20;11.40;94.30
32366;DHT22;18837;46.832;16.838;2024-02-26T15:35:46;11.40;93.70
32366;DHT22;18837;46.832;16.838;2024-02-26T15:38:12;11.40;94.00
32366;DHT22;18837;46.832;16.838;2024-02-26T15:40:39;11.40;94.10
32366;DHT22;18837;46.832;16.838;2024-02-26T15:43:05;11.40;93.80
32366;DHT22;18837;46.832;16.838;2024-02-26T15:45:31;11.40;94.10
32366;DHT22;18837;46.832;16.838;2024-02-26T15:47:59;11.30;93.90
32366;DHT22;18837;46.832;16.838;2024-02-26T15:50:25;11.30;94.00
32366;DHT22;18837;46.832;16.838;2024-02-26T15:52:51;11.30;94.10
32366;DHT22;18837;46.832;16.838;2024-02-26T15:55:17;11.30;94.10
32366;DHT22;18837;46.832;16.838;2024-02-26T15:57:42;11.20;94.30
32366;DHT22;18837;46.832;16.838;2024-02-26T16:00:09;11.20;94.40
32366;DHT22;18837;46.832;16.838;2024-02-26T16:02:39;11.20;94.20
32366;DHT22;18837;46.832;16.838;2024-02-26T16:05:06;11.20;94.30
32366;DHT22;18837;46.832;16.838;2024-02-26T16:07:37;11.20;94.80
32366;DHT22;18837;46.832;16.838;2024-02-26T16:10:04;11.20;94.30